Time,TemperatureF,DewpointF,PressureIn,WindDirection,WindDirectionDegrees,WindSpeedMPH,WindSpeedGustMPH,Humidity,HourlyPrecipIn,Conditions,Clouds,dailyrainin,SoftwareType,DateUTC
2013-06-17 00:01:00,54.5,53.1,29.79,ENE,65,0.0,1.0,95,0.00,,OVC110,0.28,VWS V14.01,2013-06-17 04:01:00,
2013-06-17 00:06:00,54.6,53.2,29.79,ENE,65,1.0,1.0,95,0.00,,CLR,0.00,VWS V14.01,2013-06-17 04:06:00,
2013-06-17 00:11:00,54.6,53.2,29.79,ENE,65,0.0,1.0,95,0.00,,CLR,0.00,VWS V14.01,2013-06-17 04:11:00,
2013-06-17 00:16:00,54.5,53.1,29.80,ENE,65,0.0,0.0,95,0.00,,CLR,0.00,VWS V14.01,2013-06-17 04:16:00,
2013-06-17 00:21:00,54.7,53.6,29.80,ENE,65,0.0,1.0,96,0.00,,CLR,0.00,VWS V14.01,2013-06-17 04:21:00,
2013-06-17 00:26:00,54.8,53.7,29.80,ENE,65,0.0,1.0,96,0.00,,CLR,0.00,VWS V14.01,2013-06-17 04:26:00,
2013-06-17 00:31:00,55.3,54.2,29.80,ENE,65,0.0,0.0,96,0.00,,CLR,0.00,VWS V14.01,2013-06-17 04:31:00,
2013-06-17 00:36:00,55.5,54.4,29.80,ENE,65,0.0,1.0,96,0.00,,CLR,0.00,VWS V14.01,2013-06-17 04:36:00,
2013-06-17 00:41:00,55.7,54.3,29.80,ENE,64,0.0,0.0,95,0.00,,CLR,0.00,VWS V14.01,2013-06-17 04:41:00,
2013-06-17 00:46:00,55.4,54.0,29.80,ENE,65,1.0,2.0,95,0.00,,CLR,0.00,VWS V14.01,2013-06-17 04:46:00,
2013-06-17 00:51:00,55.2,53.8,29.81,ENE,65,0.0,0.0,95,0.00,,CLR,0.00,VWS V14.01,2013-06-17 04:51:00,
2013-06-17 00:57:00,55.2,53.8,29.81,ENE,65,1.0,1.0,95,0.00,,CLR,0.00,VWS V14.01,2013-06-17 04:57:00,
2013-06-17 01:02:00,55.4,54.3,29.81,ENE,65,0.0,0.0,96,0.00,,CLR,0.00,VWS V14.01,2013-06-17 05:02:00,
2013-06-17 01:07:00,55.6,54.2,29.82,ENE,65,0.0,1.0,95,0.00,,OVC003,0.00,VWS V14.01,2013-06-17 05:07:00,
2013-06-17 01:12:00,55.9,54.5,29.81,NE,51,2.0,2.0,95,0.00,,OVC003,0.00,VWS V14.01,2013-06-17 05:12:00,
2013-06-17 01:17:00,56.2,54.5,29.81,NNW,343,2.0,2.0,94,0.00,,OVC003,0.00,VWS V14.01,2013-06-17 05:17:00,
2013-06-17 01:22:00,56.2,54.2,29.81,NW,321,1.0,2.0,93,0.00,,OVC003,0.00,VWS V14.01,2013-06-17 05:22:00,
2013-06-17 01:27:00,56.0,54.3,29.82,NNW,337,1.0,1.0,94,0.00,,OVC003,0.00,VWS V14.01,2013-06-17 05:27:00,
2013-06-17 01:32:00,56.0,54.0,29.82,NNW,342,1.0,2.0,93,0.00,,OVC003,0.00,VWS V14.01,2013-06-17 05:32:00,
2013-06-17 01:37:00,55.8,54.1,29.82,NNW,344,2.0,2.0,94,0.00,,OVC003,0.00,VWS V14.01,2013-06-17 05:37:00,
2013-06-17 01:42:00,56.1,54.1,29.82,NNW,344,1.0,2.0,93,0.00,,OVC003,0.00,VWS V14.01,2013-06-17 05:42:00,
2013-06-17 01:47:00,56.3,54.3,29.82,NNW,342,2.0,2.0,93,0.00,,OVC003,0.00,VWS V14.01,2013-06-17 05:47:00,
2013-06-17 01:52:00,56.0,54.0,29.82,NNW,342,1.0,1.0,93,0.00,,OVC003,0.00,VWS V14.01,2013-06-17 05:52:00,
2013-06-17 01:57:00,55.7,53.7,29.83,NNW,329,1.0,1.0,93,0.00,,OVC003,0.00,VWS V14.01,2013-06-17 05:57:00,
2013-06-17 02:02:00,55.7,54.0,29.83,WNW,285,0.0,1.0,94,0.00,,OVC003,0.00,VWS V14.01,2013-06-17 06:02:00,
2013-06-17 02:07:00,55.5,53.8,29.83,WNW,285,2.0,2.0,94,0.00,,OVC005,0.00,VWS V14.01,2013-06-17 06:07:00,
2013-06-17 02:12:00,55.4,53.7,29.82,West,275,0.0,0.0,94,0.00,,OVC005,0.00,VWS V14.01,2013-06-17 06:12:00,
2013-06-17 02:17:00,55.3,53.6,29.82,West,275,0.0,0.0,94,0.00,,OVC005,0.00,VWS V14.01,2013-06-17 06:17:00,
2013-06-17 02:22:00,54.7,53.3,29.82,West,275,0.0,0.0,95,0.00,,OVC005,0.00,VWS V14.01,2013-06-17 06:22:00,
2013-06-17 02:27:00,54.5,53.1,29.82,West,275,0.0,1.0,95,0.00,,OVC005,0.00,VWS V14.01,2013-06-17 06:27:00,
2013-06-17 02:32:00,54.5,53.4,29.82,West,275,0.0,1.0,96,0.00,,OVC005,0.00,VWS V14.01,2013-06-17 06:32:00,
2013-06-17 02:37:00,54.4,53.3,29.82,West,275,2.0,2.0,96,0.00,,OVC005,0.00,VWS V14.01,2013-06-17 06:37:00,
2013-06-17 02:42:00,54.4,53.3,29.81,South,189,2.0,2.0,96,0.00,,OVC005,0.00,VWS V14.01,2013-06-17 06:42:00,
2013-06-17 02:47:00,54.3,53.2,29.81,SE,125,1.0,1.0,96,0.00,,OVC005,0.00,VWS V14.01,2013-06-17 06:47:00,
2013-06-17 02:52:00,54.2,53.1,29.81,South,182,0.0,0.0,96,0.00,,OVC005,0.00,VWS V14.01,2013-06-17 06:52:00,
2013-06-17 02:57:00,54.0,52.9,29.81,South,182,0.0,0.0,96,0.00,,OVC005,0.00,VWS V14.01,2013-06-17 06:57:00,
2013-06-17 03:02:00,53.4,52.3,29.81,South,182,0.0,0.0,96,0.00,,OVC005,0.00,VWS V14.01,2013-06-17 07:02:00,
2013-06-17 03:07:00,53.3,52.2,29.81,South,182,0.0,1.0,96,0.00,,OVC008,0.00,VWS V14.01,2013-06-17 07:07:00,
2013-06-17 03:12:00,52.9,51.8,29.82,South,182,0.0,0.0,96,0.00,,OVC008,0.00,VWS V14.01,2013-06-17 07:12:00,
2013-06-17 03:17:00,52.8,51.7,29.82,South,182,0.0,0.0,96,0.00,,OVC008,0.00,VWS V14.01,2013-06-17 07:17:00,
2013-06-17 03:22:00,52.5,51.4,29.82,South,182,1.0,1.0,96,0.00,,OVC008,0.00,VWS V14.01,2013-06-17 07:22:00,
2013-06-17 03:27:00,52.5,51.7,29.82,South,182,0.0,0.0,97,0.00,,OVC008,0.00,VWS V14.01,2013-06-17 07:27:00,
2013-06-17 03:32:00,52.6,51.8,29.82,South,182,0.0,0.0,97,0.00,,OVC008,0.00,VWS V14.01,2013-06-17 07:32:00,
2013-06-17 03:37:00,52.5,51.7,29.82,South,182,0.0,1.0,97,0.00,,OVC008,0.00,VWS V14.01,2013-06-17 07:37:00,
2013-06-17 03:42:00,52.1,51.0,29.82,South,182,0.0,0.0,96,0.00,,OVC008,0.00,VWS V14.01,2013-06-17 07:42:00,
2013-06-17 03:47:00,52.0,50.9,29.83,South,182,0.0,0.0,96,0.00,,OVC008,0.00,VWS V14.01,2013-06-17 07:47:00,
2013-06-17 03:53:00,51.6,50.5,29.83,South,182,0.0,0.0,96,0.00,,OVC008,0.00,VWS V14.01,2013-06-17 07:53:00,
2013-06-17 03:58:00,51.4,50.3,29.83,South,182,1.0,2.0,96,0.00,,OVC008,0.00,VWS V14.01,2013-06-17 07:58:00,
2013-06-17 04:03:00,51.2,50.1,29.84,South,182,0.0,0.0,96,0.00,,CLR,0.00,VWS V14.01,2013-06-17 08:03:00,
2013-06-17 04:08:00,51.2,50.1,29.84,South,182,1.0,1.0,96,0.00,,CLR,0.00,VWS V14.01,2013-06-17 08:08:00,
2013-06-17 04:13:00,51.4,50.6,29.84,NNW,343,2.0,2.0,97,0.00,,CLR,0.00,VWS V14.01,2013-06-17 08:13:00,
2013-06-17 04:18:00,51.8,51.0,29.84,North,357,2.0,2.0,97,0.00,,CLR,0.00,VWS V14.01,2013-06-17 08:18:00,
2013-06-17 04:23:00,51.7,50.9,29.84,NNW,344,0.0,1.0,97,0.00,,CLR,0.00,VWS V14.01,2013-06-17 08:23:00,
2013-06-17 04:28:00,52.0,51.2,29.84,North,350,0.0,1.0,97,0.00,,CLR,0.00,VWS V14.01,2013-06-17 08:28:00,
2013-06-17 04:33:00,52.1,51.3,29.84,North,350,0.0,0.0,97,0.00,,CLR,0.00,VWS V14.01,2013-06-17 08:33:00,
2013-06-17 04:38:00,51.6,50.8,29.84,North,350,0.0,0.0,97,0.00,,CLR,0.00,VWS V14.01,2013-06-17 08:38:00,
2013-06-17 04:43:00,51.1,50.3,29.84,North,357,2.0,3.0,97,0.00,,CLR,0.00,VWS V14.01,2013-06-17 08:43:00,
2013-06-17 04:48:00,51.0,50.2,29.85,NNW,342,2.0,2.0,97,0.01,,CLR,0.01,VWS V14.01,2013-06-17 08:48:00,
2013-06-17 04:53:00,51.5,50.7,29.85,North,357,2.0,2.0,97,0.01,,CLR,0.01,VWS V14.01,2013-06-17 08:53:00,
2013-06-17 04:58:00,51.5,50.7,29.85,NNW,329,1.0,2.0,97,0.01,,CLR,0.01,VWS V14.01,2013-06-17 08:58:00,
2013-06-17 05:03:00,50.9,50.1,29.85,NW,325,1.0,1.0,97,0.01,,OVC021,0.01,VWS V14.01,2013-06-17 09:03:00,
2013-06-17 05:08:00,51.1,50.3,29.85,NW,325,1.0,1.0,97,0.01,,OVC021,0.01,VWS V14.01,2013-06-17 09:08:00,
2013-06-17 05:13:00,50.9,50.1,29.85,NNW,348,2.0,2.0,97,0.01,,OVC021,0.01,VWS V14.01,2013-06-17 09:13:00,
2013-06-17 05:18:00,50.7,49.9,29.85,NNW,348,0.0,0.0,97,0.01,,OVC021,0.01,VWS V14.01,2013-06-17 09:18:00,
2013-06-17 05:23:00,51.0,50.2,29.85,North,349,2.0,2.0,97,0.01,,OVC021,0.01,VWS V14.01,2013-06-17 09:23:00,
2013-06-17 05:28:00,51.3,50.5,29.85,North,357,1.0,2.0,97,0.01,,OVC021,0.01,VWS V14.01,2013-06-17 09:28:00,
2013-06-17 05:33:00,51.8,51.0,29.85,North,7,1.0,1.0,97,0.01,,OVC021,0.01,VWS V14.01,2013-06-17 09:33:00,
2013-06-17 05:38:00,51.9,51.1,29.85,North,11,1.0,2.0,97,0.01,,OVC021,0.01,VWS V14.01,2013-06-17 09:38:00,
2013-06-17 05:43:00,51.3,50.5,29.86,North,11,1.0,1.0,97,0.01,,OVC021,0.01,VWS V14.01,2013-06-17 09:43:00,
2013-06-17 05:48:00,50.9,50.1,29.86,WNW,284,0.0,1.0,97,0.01,,OVC021,0.01,VWS V14.01,2013-06-17 09:48:00,
2013-06-17 05:53:00,51.3,50.5,29.87,WNW,296,0.0,1.0,97,0.01,,OVC021,0.01,VWS V14.01,2013-06-17 09:53:00,
2013-06-17 05:58:00,51.8,51.0,29.87,WNW,302,2.0,2.0,97,0.01,,OVC021,0.01,VWS V14.01,2013-06-17 09:58:00,
2013-06-17 06:03:00,52.1,51.5,29.87,West,270,1.0,1.0,98,0.00,,OVC006,0.01,VWS V14.01,2013-06-17 10:03:00,
2013-06-17 06:08:00,52.3,51.8,29.86,West,266,0.0,0.0,98,0.00,,OVC006,0.01,VWS V14.01,2013-06-17 10:08:00,
2013-06-17 06:13:00,51.9,51.1,29.86,West,266,0.0,0.0,97,0.00,,OVC006,0.01,VWS V14.01,2013-06-17 10:13:00,
2013-06-17 06:18:00,51.8,51.0,29.87,NNW,334,0.0,0.0,97,0.00,,OVC006,0.01,VWS V14.01,2013-06-17 10:18:00,
2013-06-17 06:23:00,51.6,50.8,29.87,NNW,334,1.0,2.0,97,0.00,,OVC006,0.01,VWS V14.01,2013-06-17 10:23:00,
2013-06-17 06:28:00,51.7,50.9,29.87,NNE,13,2.0,2.0,97,0.00,,OVC006,0.01,VWS V14.01,2013-06-17 10:28:00,
2013-06-17 06:34:00,52.3,51.5,29.87,NNW,340,0.0,1.0,97,0.00,,OVC006,0.01,VWS V14.01,2013-06-17 10:34:00,
2013-06-17 06:39:00,52.7,51.9,29.87,North,357,1.0,1.0,97,0.00,,OVC006,0.01,VWS V14.01,2013-06-17 10:39:00,
2013-06-17 06:44:00,52.9,52.3,29.87,NNE,25,2.0,2.0,98,0.00,,OVC006,0.01,VWS V14.01,2013-06-17 10:44:00,
2013-06-17 06:48:00,53.2,52.4,29.87,NNE,12,1.0,1.0,97,0.00,,OVC006,0.01,VWS V14.01,2013-06-17 10:48:00,
2013-06-17 06:54:00,53.4,52.6,29.87,NNE,12,0.0,1.0,97,0.00,,OVC006,0.01,VWS V14.01,2013-06-17 10:54:00,
2013-06-17 06:59:00,53.3,52.5,29.88,NW,323,1.0,1.0,97,0.00,,OVC006,0.01,VWS V14.01,2013-06-17 10:59:00,
2013-06-17 07:04:00,53.5,52.7,29.88,NW,323,0.0,0.0,97,0.00,,OVC050,0.01,VWS V14.01,2013-06-17 11:04:00,
2013-06-17 07:09:00,53.5,52.7,29.88,NNW,335,0.0,0.0,97,0.00,,OVC050,0.01,VWS V14.01,2013-06-17 11:09:00,
2013-06-17 07:14:00,53.8,53.0,29.88,NNW,346,0.0,0.0,97,0.00,,OVC050,0.01,VWS V14.01,2013-06-17 11:14:00,
2013-06-17 07:19:00,53.9,53.1,29.88,West,281,1.0,2.0,97,0.00,,OVC050,0.01,VWS V14.01,2013-06-17 11:19:00,
2013-06-17 07:24:00,54.2,53.4,29.88,North,353,2.0,2.0,97,0.00,,OVC050,0.01,VWS V14.01,2013-06-17 11:24:00,
2013-06-17 07:29:00,54.5,53.4,29.88,NNE,17,3.0,4.0,96,0.00,,OVC050,0.01,VWS V14.01,2013-06-17 11:29:00,
2013-06-17 07:34:00,54.6,53.2,29.87,NNE,32,5.0,6.0,95,0.00,,OVC050,0.01,VWS V14.01,2013-06-17 11:34:00,
2013-06-17 07:39:00,54.4,53.0,29.88,NNW,346,2.0,3.0,95,0.00,,OVC050,0.01,VWS V14.01,2013-06-17 11:39:00,
2013-06-17 07:44:00,54.3,52.9,29.88,NNW,344,3.0,3.0,95,0.00,,OVC050,0.01,VWS V14.01,2013-06-17 11:44:00,
2013-06-17 07:49:00,54.0,52.3,29.89,NNW,339,2.0,3.0,94,0.00,,OVC050,0.01,VWS V14.01,2013-06-17 11:49:00,
2013-06-17 07:54:00,53.8,52.4,29.89,NNE,15,3.0,3.0,95,0.00,,OVC050,0.01,VWS V14.01,2013-06-17 11:54:00,
2013-06-17 07:59:00,53.9,52.5,29.89,NNE,27,4.0,4.0,95,0.00,,OVC050,0.01,VWS V14.01,2013-06-17 11:59:00,
2013-06-17 08:04:00,53.9,52.2,29.89,WNW,302,0.0,1.0,94,0.00,,OVC008,0.01,VWS V14.01,2013-06-17 12:04:00,
2013-06-17 08:09:00,54.0,52.3,29.89,North,7,3.0,3.0,94,0.00,,OVC008,0.01,VWS V14.01,2013-06-17 12:09:00,
2013-06-17 08:14:00,54.0,52.3,29.89,NW,304,3.0,4.0,94,0.00,,OVC008,0.01,VWS V14.01,2013-06-17 12:14:00,
2013-06-17 08:19:00,54.0,52.3,29.89,NW,317,1.0,1.0,94,0.00,,OVC008,0.01,VWS V14.01,2013-06-17 12:19:00,
2013-06-17 08:24:00,54.2,52.5,29.89,NW,315,3.0,4.0,94,0.00,,OVC008,0.01,VWS V14.01,2013-06-17 12:24:00,
2013-06-17 08:29:00,54.3,52.6,29.89,NNE,30,5.0,5.0,94,0.00,,OVC008,0.01,VWS V14.01,2013-06-17 12:29:00,
2013-06-17 08:34:00,54.0,52.0,29.89,ENE,57,4.0,5.0,93,0.00,,OVC008,0.01,VWS V14.01,2013-06-17 12:34:00,
2013-06-17 08:39:00,53.9,52.2,29.89,ENE,73,4.0,5.0,94,0.00,,OVC008,0.01,VWS V14.01,2013-06-17 12:39:00,
2013-06-17 08:44:00,53.7,52.0,29.89,ENE,73,2.0,4.0,94,0.00,,OVC008,0.01,VWS V14.01,2013-06-17 12:44:00,
2013-06-17 08:49:00,53.7,52.3,29.89,NE,41,4.0,6.0,95,0.00,,OVC008,0.01,VWS V14.01,2013-06-17 12:49:00,
2013-06-17 08:54:00,53.8,52.4,29.89,ENE,61,3.0,5.0,95,0.00,,OVC008,0.01,VWS V14.01,2013-06-17 12:54:00,
2013-06-17 08:59:00,53.6,52.2,29.89,East,84,7.0,7.0,95,0.00,,OVC008,0.01,VWS V14.01,2013-06-17 12:59:00,
2013-06-17 09:04:00,53.2,51.5,29.89,NE,52,5.0,5.0,94,0.00,,OVC010,0.01,VWS V14.01,2013-06-17 13:04:00,
2013-06-17 09:10:00,53.0,51.6,29.89,East,93,2.0,3.0,95,0.00,,OVC010,0.01,VWS V14.01,2013-06-17 13:10:00,
2013-06-17 09:15:00,53.0,51.6,29.89,East,99,3.0,4.0,95,0.00,,OVC010,0.01,VWS V14.01,2013-06-17 13:15:00,
2013-06-17 09:20:00,53.1,51.7,29.89,East,89,3.0,4.0,95,0.00,,OVC010,0.01,VWS V14.01,2013-06-17 13:20:00,
2013-06-17 09:25:00,53.5,51.8,29.89,ENE,65,5.0,6.0,94,0.00,,OVC010,0.01,VWS V14.01,2013-06-17 13:25:00,
2013-06-17 09:30:00,53.5,51.8,29.89,ENE,78,4.0,4.0,94,0.00,,OVC010,0.01,VWS V14.01,2013-06-17 13:30:00,
2013-06-17 09:35:00,53.9,52.2,29.90,ESE,111,3.0,4.0,94,0.00,,OVC010,0.01,VWS V14.01,2013-06-17 13:35:00,
2013-06-17 09:40:00,54.1,52.1,29.89,East,98,4.0,6.0,93,0.00,,OVC010,0.01,VWS V14.01,2013-06-17 13:40:00,
2013-06-17 09:45:00,54.5,52.8,29.90,ENE,57,4.0,7.0,94,0.00,,OVC010,0.01,VWS V14.01,2013-06-17 13:45:00,
2013-06-17 09:50:00,54.8,52.5,29.89,East,79,8.0,11.0,92,0.00,,OVC010,0.01,VWS V14.01,2013-06-17 13:50:00,
2013-06-17 09:55:00,54.7,52.4,29.90,SE,124,8.0,8.0,92,0.00,,OVC010,0.01,VWS V14.01,2013-06-17 13:55:00,
2013-06-17 10:00:00,54.7,52.4,29.90,East,84,3.0,3.0,92,0.00,,OVC010,0.01,VWS V14.01,2013-06-17 14:00:00,
2013-06-17 10:05:00,54.8,52.5,29.91,ESE,116,7.0,7.0,92,0.00,,OVC006,0.01,VWS V14.01,2013-06-17 14:05:00,
2013-06-17 10:10:00,55.2,52.6,29.91,East,83,2.0,4.0,91,0.00,,OVC006,0.01,VWS V14.01,2013-06-17 14:10:00,
2013-06-17 10:15:00,55.6,52.7,29.91,ENE,77,5.0,5.0,90,0.00,,OVC006,0.01,VWS V14.01,2013-06-17 14:15:00,
2013-06-17 10:20:00,55.9,53.0,29.91,East,92,4.0,7.0,90,0.00,,OVC006,0.01,VWS V14.01,2013-06-17 14:20:00,
2013-06-17 10:25:00,56.3,53.1,29.90,ESE,109,3.0,7.0,89,0.00,,OVC006,0.01,VWS V14.01,2013-06-17 14:25:00,
2013-06-17 10:30:00,57.1,53.6,29.90,ENE,76,5.0,8.0,88,0.00,,OVC006,0.01,VWS V14.01,2013-06-17 14:30:00,
2013-06-17 10:35:00,57.6,53.8,29.90,SE,139,8.0,8.0,87,0.00,,OVC006,0.01,VWS V14.01,2013-06-17 14:35:00,
2013-06-17 10:40:00,57.2,53.7,29.91,East,90,5.0,7.0,88,0.00,,OVC006,0.01,VWS V14.01,2013-06-17 14:40:00,
2013-06-17 10:45:00,57.7,53.9,29.90,SSE,155,4.0,4.0,87,0.00,,OVC006,0.01,VWS V14.01,2013-06-17 14:45:00,
2013-06-17 10:50:00,58.0,53.8,29.90,ESE,105,6.0,7.0,86,0.00,,OVC006,0.01,VWS V14.01,2013-06-17 14:50:00,
2013-06-17 10:55:00,58.0,54.2,29.90,SSE,150,8.0,10.0,87,0.00,,OVC006,0.01,VWS V14.01,2013-06-17 14:55:00,
2013-06-17 11:01:00,58.1,53.9,29.91,ESE,115,2.0,3.0,86,0.00,,OVC006,0.01,VWS V14.01,2013-06-17 15:01:00,
2013-06-17 11:06:00,58.7,54.5,29.91,ESE,111,3.0,3.0,86,0.00,,OVC004,0.01,VWS V14.01,2013-06-17 15:06:00,
2013-06-17 11:11:00,59.0,54.2,29.91,SW,219,2.0,5.0,84,0.00,,OVC004,0.01,VWS V14.01,2013-06-17 15:11:00,
2013-06-17 11:16:00,59.9,54.7,29.91,ESE,111,7.0,11.0,83,0.00,,OVC004,0.01,VWS V14.01,2013-06-17 15:16:00,
2013-06-17 11:21:00,59.4,53.9,29.92,SE,125,4.0,7.0,82,0.00,,OVC004,0.01,VWS V14.01,2013-06-17 15:21:00,
2013-06-17 11:26:00,60.0,54.2,29.92,South,188,2.0,2.0,81,0.00,,OVC004,0.01,VWS V14.01,2013-06-17 15:26:00,
2013-06-17 11:31:00,60.1,54.9,29.92,ESE,121,5.0,8.0,83,0.00,,OVC004,0.01,VWS V14.01,2013-06-17 15:31:00,
2013-06-17 11:36:00,60.7,54.8,29.92,East,96,2.0,2.0,81,0.00,,OVC004,0.01,VWS V14.01,2013-06-17 15:36:00,
2013-06-17 11:41:00,61.2,54.6,29.92,SE,130,4.0,5.0,79,0.00,,OVC004,0.01,VWS V14.01,2013-06-17 15:41:00,
2013-06-17 11:46:00,60.5,54.0,29.93,SE,130,3.0,4.0,79,0.00,,OVC004,0.01,VWS V14.01,2013-06-17 15:46:00,
2013-06-17 11:51:00,60.4,54.2,29.92,SE,140,5.0,7.0,80,0.00,,OVC004,0.01,VWS V14.01,2013-06-17 15:51:00,
2013-06-17 11:56:00,61.2,54.6,29.93,SW,226,6.0,6.0,79,0.00,,OVC004,0.01,VWS V14.01,2013-06-17 15:56:00,
2013-06-17 12:01:00,61.1,54.5,29.93,SE,134,7.0,7.0,79,0.00,,OVC004,0.01,VWS V14.01,2013-06-17 16:01:00,
2013-06-17 12:06:00,60.9,54.3,29.93,SSW,197,0.0,3.0,79,0.00,,OVC008,0.01,VWS V14.01,2013-06-17 16:06:00,
2013-06-17 12:11:00,60.7,54.5,29.93,SE,141,2.0,3.0,80,0.00,,OVC008,0.01,VWS V14.01,2013-06-17 16:11:00,
2013-06-17 12:16:00,61.3,54.7,29.93,SE,130,5.0,5.0,79,0.00,,OVC008,0.01,VWS V14.01,2013-06-17 16:16:00,
2013-06-17 12:21:00,62.0,54.7,29.93,ENE,71,4.0,4.0,77,0.00,,OVC008,0.01,VWS V14.01,2013-06-17 16:21:00,
2013-06-17 12:26:00,62.8,55.5,29.92,ESE,108,6.0,7.0,77,0.00,,OVC008,0.01,VWS V14.01,2013-06-17 16:26:00,
2013-06-17 12:31:00,62.7,54.7,29.92,ESE,107,6.0,8.0,75,0.00,,OVC008,0.01,VWS V14.01,2013-06-17 16:31:00,
2013-06-17 12:36:00,62.8,54.8,29.93,SE,136,2.0,3.0,75,0.00,,OVC008,0.01,VWS V14.01,2013-06-17 16:36:00,
2013-06-17 12:41:00,62.3,54.7,29.93,East,90,5.0,6.0,76,0.00,,OVC008,0.01,VWS V14.01,2013-06-17 16:41:00,
2013-06-17 12:46:00,62.2,54.5,29.93,ESE,104,6.0,8.0,76,0.00,,OVC008,0.01,VWS V14.01,2013-06-17 16:46:00,
2013-06-17 12:51:00,61.9,54.6,29.93,ENE,67,6.0,8.0,77,0.00,,OVC008,0.01,VWS V14.01,2013-06-17 16:51:00,
2013-06-17 12:56:00,61.7,54.4,29.93,East,87,9.0,11.0,77,0.00,,OVC008,0.01,VWS V14.01,2013-06-17 16:56:00,
2013-06-17 13:01:00,61.5,54.6,29.92,East,94,8.0,8.0,78,0.00,,OVC008,0.01,VWS V14.01,2013-06-17 17:01:00,
2013-06-17 13:06:00,61.3,54.4,29.93,East,86,4.0,6.0,78,0.00,,OVC090,0.01,VWS V14.01,2013-06-17 17:06:00,
2013-06-17 13:11:00,61.6,54.7,29.93,East,80,7.0,9.0,78,0.00,,OVC090,0.01,VWS V14.01,2013-06-17 17:11:00,
2013-06-17 13:16:00,61.4,54.8,29.92,ESE,112,9.0,9.0,79,0.00,,OVC090,0.01,VWS V14.01,2013-06-17 17:16:00,
2013-06-17 13:21:00,61.7,55.1,29.93,SE,138,9.0,10.0,79,0.00,,OVC090,0.01,VWS V14.01,2013-06-17 17:21:00,
2013-06-17 13:26:00,61.7,54.8,29.93,East,90,8.0,12.0,78,0.00,,OVC090,0.01,VWS V14.01,2013-06-17 17:26:00,
2013-06-17 13:31:00,61.4,54.5,29.93,East,101,9.0,9.0,78,0.00,,OVC090,0.01,VWS V14.01,2013-06-17 17:31:00,
2013-06-17 13:36:00,61.5,54.9,29.93,ENE,77,8.0,8.0,79,0.00,,OVC090,0.01,VWS V14.01,2013-06-17 17:36:00,
2013-06-17 13:41:00,62.0,55.4,29.93,East,100,7.0,7.0,79,0.00,,OVC090,0.01,VWS V14.01,2013-06-17 17:41:00,
2013-06-17 13:46:00,62.5,55.6,29.93,East,79,7.0,7.0,78,0.00,,OVC090,0.01,VWS V14.01,2013-06-17 17:46:00,
2013-06-17 13:51:00,62.1,54.8,29.93,East,89,8.0,9.0,77,0.00,,OVC090,0.01,VWS V14.01,2013-06-17 17:51:00,
2013-06-17 13:56:00,62.2,54.9,29.93,ENE,75,5.0,7.0,77,0.00,,OVC090,0.01,VWS V14.01,2013-06-17 17:56:00,
2013-06-17 14:01:00,62.2,54.9,29.93,ENE,59,5.0,5.0,77,0.00,,OVC090,0.01,VWS V14.01,2013-06-17 18:01:00,
2013-06-17 14:06:00,63.6,55.5,29.93,ENE,65,8.0,9.0,75,0.00,,SCT110,0.01,VWS V14.01,2013-06-17 18:06:00,
2013-06-17 14:11:00,62.8,54.8,29.93,ESE,105,8.0,9.0,75,0.00,,SCT110,0.01,VWS V14.01,2013-06-17 18:11:00,
2013-06-17 14:16:00,62.3,53.9,29.93,ESE,105,6.0,6.0,74,0.00,,SCT110,0.01,VWS V14.01,2013-06-17 18:16:00,
2013-06-17 14:21:00,62.4,54.8,29.93,ESE,122,5.0,7.0,76,0.00,,SCT110,0.01,VWS V14.01,2013-06-17 18:21:00,
2013-06-17 14:26:00,62.2,54.2,29.93,ESE,121,4.0,4.0,75,0.00,,SCT110,0.01,VWS V14.01,2013-06-17 18:26:00,
2013-06-17 14:31:00,63.3,55.2,29.93,NE,36,5.0,5.0,75,0.00,,SCT110,0.01,VWS V14.01,2013-06-17 18:31:00,
2013-06-17 14:37:00,63.0,55.3,29.92,East,95,9.0,9.0,76,0.00,,SCT110,0.01,VWS V14.01,2013-06-17 18:37:00,
2013-06-17 14:42:00,62.9,54.1,29.92,ENE,73,6.0,7.0,73,0.00,,SCT110,0.01,VWS V14.01,2013-06-17 18:42:00,
2013-06-17 14:47:00,62.5,54.1,29.93,SE,126,7.0,7.0,74,0.00,,SCT110,0.01,VWS V14.01,2013-06-17 18:47:00,
2013-06-17 14:52:00,62.9,54.9,29.93,ENE,71,3.0,4.0,75,0.00,,SCT110,0.01,VWS V14.01,2013-06-17 18:52:00,
2013-06-17 14:57:00,62.9,55.2,29.93,East,82,5.0,7.0,76,0.00,,SCT110,0.01,VWS V14.01,2013-06-17 18:57:00,
2013-06-17 15:02:00,62.6,54.6,29.93,ESE,107,7.0,8.0,75,0.00,,SCT110,0.01,VWS V14.01,2013-06-17 19:02:00,
2013-06-17 15:07:00,62.3,54.3,29.93,ENE,78,9.0,10.0,75,0.00,,CLR,0.01,VWS V14.01,2013-06-17 19:07:00,
2013-06-17 15:12:00,62.3,54.3,29.93,East,86,7.0,10.0,75,0.00,,CLR,0.01,VWS V14.01,2013-06-17 19:12:00,
2013-06-17 15:17:00,61.9,54.3,29.92,ESE,105,9.0,11.0,76,0.00,,CLR,0.01,VWS V14.01,2013-06-17 19:17:00,
2013-06-17 15:22:00,61.9,54.3,29.93,East,90,5.0,6.0,76,0.00,,CLR,0.01,VWS V14.01,2013-06-17 19:22:00,
2013-06-17 15:27:00,61.7,54.1,29.92,East,96,7.0,10.0,76,0.00,,CLR,0.01,VWS V14.01,2013-06-17 19:27:00,
2013-06-17 15:32:00,61.5,54.2,29.93,ESE,103,4.0,7.0,77,0.00,,CLR,0.01,VWS V14.01,2013-06-17 19:32:00,
2013-06-17 15:37:00,61.6,54.0,29.93,East,98,7.0,7.0,76,0.00,,CLR,0.01,VWS V14.01,2013-06-17 19:37:00,
2013-06-17 15:42:00,61.9,54.3,29.93,ESE,111,8.0,9.0,76,0.00,,CLR,0.01,VWS V14.01,2013-06-17 19:42:00,
2013-06-17 15:47:00,61.9,54.3,29.92,ESE,115,8.0,8.0,76,0.00,,CLR,0.01,VWS V14.01,2013-06-17 19:47:00,
2013-06-17 15:52:00,61.4,53.4,29.93,East,85,7.0,7.0,75,0.00,,CLR,0.01,VWS V14.01,2013-06-17 19:52:00,
2013-06-17 15:57:00,60.9,53.3,29.92,East,99,4.0,7.0,76,0.00,,CLR,0.01,VWS V14.01,2013-06-17 19:57:00,
2013-06-17 16:02:00,60.6,53.7,29.93,East,101,7.0,8.0,78,0.00,,CLR,0.01,VWS V14.01,2013-06-17 20:02:00,
2013-06-17 16:07:00,60.6,53.7,29.93,ESE,119,8.0,9.0,78,0.00,,SCT110,0.01,VWS V14.01,2013-06-17 20:07:00,
2013-06-17 16:12:00,60.4,53.9,29.93,East,91,3.0,4.0,79,0.00,,SCT110,0.01,VWS V14.01,2013-06-17 20:12:00,
2013-06-17 16:17:00,60.4,53.5,29.93,East,92,6.0,8.0,78,0.00,,SCT110,0.01,VWS V14.01,2013-06-17 20:17:00,
2013-06-17 16:22:00,60.2,53.3,29.93,East,84,8.0,8.0,78,0.00,,SCT110,0.01,VWS V14.01,2013-06-17 20:22:00,
2013-06-17 16:36:00,60.2,53.7,29.93,East,90,5.0,7.0,79,0.00,,SCT110,0.01,VWS V14.01,2013-06-17 20:36:00,
2013-06-17 16:41:00,60.1,53.2,29.93,ESE,115,9.0,10.0,78,0.00,,SCT110,0.01,VWS V14.01,2013-06-17 20:41:00,
2013-06-17 16:46:00,59.9,53.0,29.93,ESE,116,8.0,8.0,78,0.00,,SCT110,0.01,VWS V14.01,2013-06-17 20:46:00,
2013-06-17 16:51:00,59.8,52.9,29.92,ESE,108,8.0,9.0,78,0.00,,SCT110,0.01,VWS V14.01,2013-06-17 20:51:00,
2013-06-17 16:56:00,59.7,53.2,29.93,East,101,6.0,7.0,79,0.00,,SCT110,0.01,VWS V14.01,2013-06-17 20:56:00,
2013-06-17 17:01:00,59.6,52.7,29.93,ESE,109,4.0,4.0,78,0.00,,SCT110,0.01,VWS V14.01,2013-06-17 21:01:00,
2013-06-17 17:06:00,59.7,52.8,29.93,East,95,6.0,6.0,78,0.00,,FEW100,0.01,VWS V14.01,2013-06-17 21:06:00,
2013-06-17 17:11:00,60.3,53.4,29.93,East,92,7.0,8.0,78,0.00,,FEW100,0.01,VWS V14.01,2013-06-17 21:11:00,
2013-06-17 17:16:00,60.2,52.6,29.93,East,99,7.0,9.0,76,0.00,,FEW100,0.01,VWS V14.01,2013-06-17 21:16:00,
2013-06-17 17:21:00,59.8,52.9,29.93,SE,128,4.0,5.0,78,0.00,,FEW100,0.01,VWS V14.01,2013-06-17 21:21:00,
2013-06-17 17:26:00,60.0,53.5,29.94,ESE,123,4.0,4.0,79,0.00,,FEW100,0.01,VWS V14.01,2013-06-17 21:26:00,
2013-06-17 17:31:00,59.8,52.6,29.94,SE,127,7.0,7.0,77,0.00,,FEW100,0.01,VWS V14.01,2013-06-17 21:31:00,
2013-06-17 17:36:00,59.6,52.7,29.94,East,96,4.0,4.0,78,0.00,,FEW100,0.01,VWS V14.01,2013-06-17 21:36:00,
2013-06-17 17:41:00,59.4,52.5,29.94,SE,125,4.0,6.0,78,0.00,,FEW100,0.01,VWS V14.01,2013-06-17 21:41:00,
2013-06-17 17:46:00,59.3,52.8,29.95,ESE,113,3.0,4.0,79,0.00,,FEW100,0.01,VWS V14.01,2013-06-17 21:46:00,
2013-06-17 17:51:00,59.1,52.3,29.95,East,94,4.0,4.0,78,0.00,,FEW100,0.01,VWS V14.01,2013-06-17 21:51:00,
2013-06-17 17:56:00,59.1,52.6,29.94,ESE,120,4.0,4.0,79,0.00,,FEW100,0.01,VWS V14.01,2013-06-17 21:56:00,
2013-06-17 18:01:00,59.2,52.7,29.94,SE,130,2.0,3.0,79,0.00,,FEW100,0.01,VWS V14.01,2013-06-17 22:01:00,
2013-06-17 18:06:00,59.3,53.1,29.94,SE,130,4.0,4.0,80,0.00,,BKN120,0.01,VWS V14.01,2013-06-17 22:06:00,
2013-06-17 18:12:00,59.3,52.8,29.94,SE,130,3.0,3.0,79,0.00,,BKN120,0.01,VWS V14.01,2013-06-17 22:12:00,
2013-06-17 18:17:00,59.3,52.8,29.95,East,98,2.0,2.0,79,0.00,,BKN120,0.01,VWS V14.01,2013-06-17 22:17:00,
2013-06-17 18:22:00,59.3,52.8,29.94,ESE,121,3.0,3.0,79,0.00,,BKN120,0.01,VWS V14.01,2013-06-17 22:22:00,
2013-06-17 18:27:00,59.4,53.2,29.94,ESE,121,4.0,4.0,80,0.00,,BKN120,0.01,VWS V14.01,2013-06-17 22:27:00,
2013-06-17 18:32:00,59.2,52.7,29.94,ESE,122,2.0,3.0,79,0.00,,BKN120,0.01,VWS V14.01,2013-06-17 22:32:00,
2013-06-17 18:37:00,59.3,52.8,29.94,ESE,109,6.0,7.0,79,0.00,,BKN120,0.01,VWS V14.01,2013-06-17 22:37:00,
2013-06-17 18:42:00,59.2,52.7,29.94,ESE,117,2.0,3.0,79,0.00,,BKN120,0.01,VWS V14.01,2013-06-17 22:42:00,
2013-06-17 18:47:00,59.3,53.1,29.94,East,96,6.0,6.0,80,0.00,,BKN120,0.01,VWS V14.01,2013-06-17 22:47:00,
2013-06-17 18:52:00,59.5,53.3,29.94,ESE,112,3.0,4.0,80,0.00,,BKN120,0.01,VWS V14.01,2013-06-17 22:52:00,
2013-06-17 18:57:00,59.4,52.9,29.94,East,79,4.0,4.0,79,0.00,,BKN120,0.01,VWS V14.01,2013-06-17 22:57:00,
2013-06-17 19:02:00,59.6,53.4,29.94,ESE,119,4.0,7.0,80,0.00,,BKN120,0.01,VWS V14.01,2013-06-17 23:02:00,
2013-06-17 19:07:00,59.6,53.1,29.94,ESE,115,3.0,4.0,79,0.00,,FEW120,0.01,VWS V14.01,2013-06-17 23:07:00,
2013-06-17 19:12:00,59.8,53.6,29.93,ESE,113,2.0,3.0,80,0.00,,FEW120,0.01,VWS V14.01,2013-06-17 23:12:00,
2013-06-17 19:17:00,60.0,53.1,29.93,ESE,108,3.0,5.0,78,0.00,,FEW120,0.01,VWS V14.01,2013-06-17 23:17:00,
2013-06-17 19:22:00,59.5,52.6,29.93,ESE,116,6.0,6.0,78,0.00,,FEW120,0.01,VWS V14.01,2013-06-17 23:22:00,
2013-06-17 19:27:00,59.1,52.6,29.93,East,85,3.0,3.0,79,0.00,,FEW120,0.01,VWS V14.01,2013-06-17 23:27:00,
2013-06-17 19:32:00,59.1,52.9,29.93,East,85,2.0,3.0,80,0.00,,FEW120,0.01,VWS V14.01,2013-06-17 23:32:00,
2013-06-17 19:37:00,59.1,53.3,29.93,ESE,105,4.0,4.0,81,0.00,,FEW120,0.01,VWS V14.01,2013-06-17 23:37:00,
2013-06-17 19:42:00,59.1,52.9,29.93,ESE,113,1.0,1.0,80,0.00,,FEW120,0.01,VWS V14.01,2013-06-17 23:42:00,
2013-06-17 19:47:00,59.2,53.4,29.93,East,92,3.0,3.0,81,0.00,,FEW120,0.01,VWS V14.01,2013-06-17 23:47:00,
2013-06-17 19:52:00,59.2,53.0,29.94,SE,130,2.0,3.0,80,0.00,,FEW120,0.01,VWS V14.01,2013-06-17 23:52:00,
2013-06-17 19:57:00,59.2,53.4,29.94,ESE,116,3.0,4.0,81,0.00,,FEW120,0.01,VWS V14.01,2013-06-17 23:57:00,
2013-06-17 20:02:00,59.1,52.9,29.94,ESE,114,3.0,3.0,80,0.00,,FEW120,0.01,VWS V14.01,2013-06-18 00:02:00,
2013-06-17 20:07:00,59.1,52.9,29.94,ESE,121,3.0,3.0,80,0.00,,CLR,0.01,VWS V14.01,2013-06-18 00:07:00,
2013-06-17 20:12:00,59.3,53.8,29.94,SW,230,3.0,3.0,82,0.00,,CLR,0.01,VWS V14.01,2013-06-18 00:12:00,
2013-06-17 20:17:00,59.3,53.1,29.94,SE,138,2.0,3.0,80,0.00,,CLR,0.01,VWS V14.01,2013-06-18 00:17:00,
2013-06-17 20:22:00,59.3,52.8,29.94,SE,130,2.0,3.0,79,0.00,,CLR,0.01,VWS V14.01,2013-06-18 00:22:00,
2013-06-17 20:27:00,59.1,52.9,29.94,ESE,121,2.0,2.0,80,0.00,,CLR,0.01,VWS V14.01,2013-06-18 00:27:00,
2013-06-17 20:32:00,58.9,52.8,29.94,SE,125,2.0,2.0,80,0.00,,CLR,0.01,VWS V14.01,2013-06-18 00:32:00,
2013-06-17 20:37:00,58.8,52.7,29.95,ESE,111,2.0,3.0,80,0.00,,CLR,0.01,VWS V14.01,2013-06-18 00:37:00,
2013-06-17 20:42:00,58.6,52.8,29.95,ESE,113,1.0,1.0,81,0.00,,CLR,0.01,VWS V14.01,2013-06-18 00:42:00,
2013-06-17 20:47:00,58.5,53.0,29.95,ESE,114,2.0,2.0,82,0.00,,CLR,0.01,VWS V14.01,2013-06-18 00:47:00,
2013-06-17 20:52:00,58.5,52.7,29.95,ESE,116,2.0,3.0,81,0.00,,CLR,0.01,VWS V14.01,2013-06-18 00:52:00,
2013-06-17 20:57:00,58.4,52.9,29.95,ESE,115,1.0,2.0,82,0.00,,CLR,0.01,VWS V14.01,2013-06-18 00:57:00,
2013-06-17 21:02:00,58.2,52.7,29.95,ESE,106,2.0,2.0,82,0.00,,CLR,0.01,VWS V14.01,2013-06-18 01:02:00,
2013-06-17 21:07:00,58.1,53.0,29.96,East,84,1.0,2.0,83,0.00,,CLR,0.01,VWS V14.01,2013-06-18 01:07:00,
2013-06-17 21:13:00,57.6,52.8,29.96,ENE,70,1.0,1.0,84,0.00,,CLR,0.01,VWS V14.01,2013-06-18 01:13:00,
2013-06-17 21:18:00,57.2,52.7,29.96,ENE,70,1.0,1.0,85,0.00,,CLR,0.01,VWS V14.01,2013-06-18 01:18:00,
2013-06-17 21:23:00,56.8,52.7,29.96,ENE,70,2.0,2.0,86,0.00,,CLR,0.01,VWS V14.01,2013-06-18 01:23:00,
2013-06-17 21:28:00,56.8,52.3,29.96,ENE,70,1.0,1.0,85,0.00,,CLR,0.01,VWS V14.01,2013-06-18 01:28:00,
2013-06-17 21:33:00,56.6,52.8,29.97,ENE,70,1.0,1.0,87,0.00,,CLR,0.01,VWS V14.01,2013-06-18 01:33:00,
2013-06-17 21:38:00,55.9,52.4,29.97,ENE,70,1.0,2.0,88,0.00,,CLR,0.01,VWS V14.01,2013-06-18 01:38:00,
2013-06-17 21:43:00,55.5,52.3,29.97,ENE,70,1.0,2.0,89,0.00,,CLR,0.01,VWS V14.01,2013-06-18 01:43:00,
2013-06-17 21:48:00,55.1,52.2,29.97,ENE,72,1.0,2.0,90,0.00,,CLR,0.01,VWS V14.01,2013-06-18 01:48:00,
2013-06-17 21:53:00,54.8,51.9,29.97,ENE,72,0.0,1.0,90,0.00,,CLR,0.01,VWS V14.01,2013-06-18 01:53:00,
2013-06-17 21:58:00,53.9,51.0,29.97,ENE,72,0.0,1.0,90,0.00,,CLR,0.01,VWS V14.01,2013-06-18 01:58:00,
2013-06-17 22:03:00,52.8,50.5,29.97,ENE,72,0.0,1.0,92,0.00,,CLR,0.01,VWS V14.01,2013-06-18 02:03:00,
2013-06-17 22:08:00,52.9,51.2,29.98,ENE,72,1.0,1.0,94,0.00,,CLR,0.01,VWS V14.01,2013-06-18 02:08:00,
2013-06-17 22:13:00,53.2,51.2,29.98,ENE,72,1.0,1.0,93,0.00,,CLR,0.01,VWS V14.01,2013-06-18 02:13:00,
2013-06-17 22:18:00,53.0,51.0,29.98,ENE,72,0.0,1.0,93,0.00,,CLR,0.01,VWS V14.01,2013-06-18 02:18:00,
2013-06-17 22:23:00,52.5,50.2,29.99,SW,231,0.0,1.0,92,0.00,,CLR,0.01,VWS V14.01,2013-06-18 02:23:00,
2013-06-17 22:28:00,51.6,49.4,29.99,East,90,2.0,2.0,92,0.00,,CLR,0.01,VWS V14.01,2013-06-18 02:28:00,
2013-06-17 22:33:00,51.2,49.5,29.99,East,88,2.0,2.0,94,0.00,,CLR,0.01,VWS V14.01,2013-06-18 02:33:00,
2013-06-17 22:38:00,51.3,49.9,30.00,East,88,0.0,1.0,95,0.00,,CLR,0.01,VWS V14.01,2013-06-18 02:38:00,
2013-06-17 22:43:00,51.0,49.3,30.00,East,88,0.0,0.0,94,0.00,,CLR,0.01,VWS V14.01,2013-06-18 02:43:00,
2013-06-17 22:48:00,51.1,49.7,30.00,East,88,0.0,0.0,95,0.00,,CLR,0.01,VWS V14.01,2013-06-18 02:48:00,
2013-06-17 22:53:00,51.0,49.6,30.00,East,88,1.0,1.0,95,0.00,,CLR,0.01,VWS V14.01,2013-06-18 02:53:00,
2013-06-17 22:59:00,50.7,49.3,30.00,East,88,0.0,1.0,95,0.00,,CLR,0.01,VWS V14.01,2013-06-18 02:59:00,
2013-06-17 23:04:00,50.5,49.1,30.00,East,88,2.0,2.0,95,0.00,,CLR,0.01,VWS V14.01,2013-06-18 03:04:00,
2013-06-17 23:09:00,50.3,48.9,30.00,SE,127,2.0,2.0,95,0.00,,CLR,0.01,VWS V14.01,2013-06-18 03:09:00,
2013-06-17 23:14:00,49.9,48.5,30.00,SE,128,0.0,1.0,95,0.00,,CLR,0.01,VWS V14.01,2013-06-18 03:14:00,
2013-06-17 23:19:00,49.8,48.4,30.00,SE,128,1.0,2.0,95,0.00,,CLR,0.01,VWS V14.01,2013-06-18 03:19:00,
2013-06-17 23:24:00,50.0,48.9,30.00,East,86,2.0,3.0,96,0.00,,CLR,0.01,VWS V14.01,2013-06-18 03:24:00,
2013-06-17 23:29:00,50.2,49.1,30.00,East,88,3.0,3.0,96,0.00,,CLR,0.01,VWS V14.01,2013-06-18 03:29:00,
2013-06-17 23:34:00,50.9,49.8,30.01,East,88,1.0,2.0,96,0.00,,CLR,0.01,VWS V14.01,2013-06-18 03:34:00,
2013-06-17 23:39:00,51.2,49.8,30.01,ENE,63,2.0,3.0,95,0.00,,CLR,0.01,VWS V14.01,2013-06-18 03:39:00,
2013-06-17 23:44:00,51.5,49.8,30.01,NE,52,2.0,2.0,94,0.00,,CLR,0.01,VWS V14.01,2013-06-18 03:44:00,
2013-06-17 23:49:00,51.6,49.9,30.01,NE,55,3.0,3.0,94,0.00,,CLR,0.01,VWS V14.01,2013-06-18 03:49:00,
2013-06-17 23:54:00,51.5,49.5,30.01,NE,36,3.0,3.0,93,0.00,,CLR,0.01,VWS V14.01,2013-06-18 03:54:00,
2013-06-17 23:59:00,51.3,49.3,30.01,NE,52,3.0,3.0,93,0.00,,CLR,0.01,VWS V14.01,2013-06-18 03:59:00,